Terminal Aerodrome Forecast
Issued by NWS

Home | Current Version | Previous Version | Text Only | Print | Product List | Glossary Off
Versions: 1 2 3 4 5 6 7 8 9 10 11 12 13 14 15 16 17 18

646
FTUS43 KMPX 061139
TAFRWF
TAF
KRWF 061139Z 0612/0712 26017G26KT P6SM SCT020 OVC030
     FM061400 26026G34KT 6SM BR VCSH OVC020
     FM062100 28023G35KT P6SM SCT020 OVC040
     FM070000 28021G31KT P6SM OVC050=

USA.gov is the U.S. government's official web portal to all federal, state and local government web resources and services.